createdAt,value
2023-01-19T00:01:10.949Z,92.62
2023-01-19T00:03:58.116Z,91.36
2023-01-19T00:06:24.805Z,93.54
2023-01-19T00:08:51.529Z,93.64
2023-01-19T00:11:18.673Z,93.48
2023-01-19T00:13:52.065Z,95.13
2023-01-19T00:16:21.738Z,94.90
2023-01-19T00:18:50.746Z,93.86
2023-01-19T00:21:17.893Z,92.15
2023-01-19T00:23:47.514Z,91.65
2023-01-19T00:26:17.540Z,91.45
2023-01-19T00:28:45.046Z,91.35
2023-01-19T00:33:49.201Z,92.70
2023-01-19T00:36:16.644Z,92.80
2023-01-19T00:38:43.493Z,92.76
2023-01-19T00:44:49.535Z,93.68
2023-01-19T00:47:16.287Z,94.20
2023-01-19T00:49:42.825Z,93.67
2023-01-19T00:52:09.400Z,92.40
2023-01-19T00:54:37.531Z,92.73
2023-01-19T00:57:04.320Z,93.16
2023-01-19T00:59:30.893Z,93.56
2023-01-19T01:01:57.699Z,93.09
2023-01-19T01:04:24.380Z,91.36
2023-01-19T01:06:50.945Z,92.72
2023-01-19T01:09:17.736Z,91.12
2023-01-19T01:11:44.437Z,91.11
2023-01-19T01:14:12.212Z,94.26
2023-01-19T01:16:39.388Z,94.30
2023-01-19T01:19:05.981Z,91.97
2023-01-19T01:24:02.162Z,90.75
2023-01-19T01:26:28.972Z,91.79
2023-01-19T01:29:08.459Z,90.92
2023-01-19T01:31:35.385Z,91.31
2023-01-19T01:34:01.989Z,91.59
2023-01-19T01:36:31.858Z,91.14
2023-01-19T01:39:13.877Z,91.59
2023-01-19T01:42:26.855Z,90.90
2023-01-19T01:45:28.567Z,91.39
2023-01-19T01:48:01.594Z,92.26
2023-01-19T01:50:29.678Z,90.47
2023-01-19T01:58:09.729Z,90.88
2023-01-19T02:00:56.742Z,90.17
2023-01-19T02:03:25.556Z,90.24
2023-01-19T02:05:57.568Z,90.09
2023-01-19T02:08:59.895Z,89.33
2023-01-19T02:11:45.384Z,89.19
2023-01-19T02:37:13.777Z,85.76
2023-01-19T02:39:47.714Z,86.02
2023-01-19T02:42:21.488Z,85.87
2023-01-19T02:44:50.734Z,87.17
2023-01-19T02:47:17.416Z,86.88
2023-01-19T02:49:44.017Z,87.75
2023-01-19T02:52:18.512Z,87.35
2023-01-19T02:54:51.065Z,86.28
2023-01-19T02:57:27.270Z,86.70
2023-01-19T02:59:58.577Z,85.70
2023-01-19T03:02:33.986Z,85.63
2023-01-19T03:13:49.083Z,86.20
2023-01-19T03:16:51.036Z,86.26
2023-01-19T03:19:22.221Z,86.74
2023-01-19T03:21:54.237Z,85.32
2023-01-19T03:24:22.700Z,86.81
2023-01-19T03:26:58.854Z,85.99
2023-01-19T03:29:29.731Z,84.89
2023-01-19T03:32:01.655Z,85.68
2023-01-19T03:34:29.007Z,86.20
2023-01-19T03:37:01.953Z,87.02
2023-01-19T03:39:29.121Z,88.22
2023-01-19T03:42:01.418Z,87.32
2023-01-19T03:44:30.149Z,86.21
2023-01-19T03:46:58.545Z,85.49
2023-01-19T03:49:25.282Z,84.88
2023-01-19T03:51:55.820Z,85.71
2023-01-19T03:54:46.802Z,85.74
2023-01-19T03:57:38.597Z,85.60
2023-01-19T04:17:27.160Z,84.15
2023-01-19T04:19:53.725Z,83.09
2023-01-19T04:22:20.259Z,83.36
2023-01-19T04:24:47.005Z,83.31
2023-01-19T04:27:15.007Z,82.65
2023-01-19T04:30:12.811Z,82.27
2023-01-19T04:33:00.071Z,82.74
2023-01-19T04:35:27.060Z,83.48
2023-01-19T04:37:53.771Z,84.16
2023-01-19T04:40:20.855Z,84.12
2023-01-19T04:42:47.672Z,83.74
2023-01-19T04:45:14.756Z,84.22
2023-01-19T04:47:42.720Z,84.40
2023-01-19T04:50:11.379Z,83.44
2023-01-19T04:52:38.196Z,83.71
2023-01-19T04:55:06.335Z,83.52
2023-01-19T04:57:33.221Z,83.41
2023-01-19T05:00:00.067Z,82.74
2023-01-19T05:02:27.124Z,83.24
2023-01-19T05:04:53.923Z,82.30
2023-01-19T05:07:20.612Z,82.06
2023-01-19T05:09:47.301Z,81.98
2023-01-19T05:12:13.887Z,81.92
2023-01-19T05:14:40.436Z,82.15
2023-01-19T05:17:07.249Z,81.77
2023-01-19T05:19:33.856Z,81.60
2023-01-19T05:22:02.832Z,80.59
2023-01-19T05:24:29.842Z,80.72
2023-01-19T05:26:56.491Z,80.29
2023-01-19T05:29:23.169Z,79.97
2023-01-19T05:31:49.831Z,80.83
2023-01-19T05:34:35.300Z,81.15
2023-01-19T05:37:34.523Z,81.04
2023-01-19T05:40:01.117Z,80.85
2023-01-19T05:42:27.704Z,80.23
2023-01-19T05:44:54.243Z,80.39
2023-01-19T05:47:20.788Z,79.90
2023-01-19T05:49:47.362Z,79.57
2023-01-19T05:52:14.890Z,78.52
2023-01-19T05:54:41.449Z,78.40
2023-01-19T05:57:08.245Z,78.56
2023-01-19T05:59:35.165Z,78.92
2023-01-19T06:02:01.830Z,79.97
2023-01-19T06:04:28.442Z,79.15
2023-01-19T06:06:55.034Z,78.63
2023-01-19T06:09:21.617Z,78.25
2023-01-19T06:11:48.476Z,77.80
2023-01-19T06:14:15.072Z,77.85
2023-01-19T06:16:41.735Z,78.43
2023-01-19T06:19:08.404Z,78.41
2023-01-19T06:21:35.018Z,78.94
2023-01-19T06:24:02.158Z,77.96
2023-01-19T06:26:28.703Z,77.57
2023-01-19T06:28:55.541Z,77.27
2023-01-19T06:31:22.441Z,77.48
2023-01-19T06:33:49.915Z,78.17
2023-01-19T06:36:16.576Z,77.71
2023-01-19T06:38:43.178Z,76.94
2023-01-19T06:41:09.783Z,77.34
2023-01-19T06:43:36.434Z,76.75
2023-01-19T06:46:03.512Z,76.67
2023-01-19T06:48:30.170Z,75.90
2023-01-19T06:50:58.710Z,77.50
2023-01-19T06:53:28.032Z,76.85
2023-01-19T06:56:02.043Z,76.18
2023-01-19T06:58:30.344Z,76.46
2023-01-19T07:01:01.940Z,76.82
2023-01-19T07:03:28.690Z,76.53
2023-01-19T07:05:56.806Z,77.07
2023-01-19T07:08:24.371Z,76.29
2023-01-19T07:11:27.146Z,76.44
2023-01-19T07:13:39.586Z,76.86
2023-01-19T07:16:11.757Z,76.57
2023-01-19T07:18:40.536Z,77.01
2023-01-19T07:21:07.573Z,75.94
2023-01-19T07:23:34.236Z,75.57
2023-01-19T07:26:03.116Z,77.21
2023-01-19T07:28:31.784Z,76.68
2023-01-19T07:30:58.655Z,76.04
2023-01-19T07:33:26.208Z,76.03
2023-01-19T07:35:53.599Z,76.45
2023-01-19T07:38:20.428Z,75.85
2023-01-19T07:40:47.789Z,75.37
2023-01-19T07:43:15.618Z,75.43
2023-01-19T07:45:43.077Z,75.46
2023-01-19T07:48:09.751Z,75.50
2023-01-19T07:50:36.463Z,75.16
2023-01-19T07:53:07.496Z,75.69
2023-01-19T07:55:34.268Z,75.28
2023-01-19T07:58:01.437Z,75.02
2023-01-19T08:00:28.106Z,74.84
2023-01-19T08:03:04.099Z,74.36
2023-01-19T08:05:32.572Z,74.38
2023-01-19T08:07:59.422Z,74.39
2023-01-19T08:10:28.863Z,74.03
2023-01-19T08:12:57.119Z,74.09
2023-01-19T08:15:24.875Z,74.55
2023-01-19T08:17:59.677Z,74.57
2023-01-19T08:20:28.290Z,74.07
2023-01-19T08:23:05.549Z,74.33
2023-01-19T08:25:34.719Z,74.31
2023-01-19T08:28:02.145Z,73.99
2023-01-19T08:30:28.784Z,73.57
2023-01-19T08:33:03.792Z,72.77
2023-01-19T08:35:32.078Z,72.44
2023-01-19T08:38:01.596Z,72.13
2023-01-19T08:40:35.980Z,72.66
2023-01-19T08:43:07.828Z,73.03
2023-01-19T08:45:41.664Z,73.28
2023-01-19T08:48:08.474Z,73.23
2023-01-19T08:50:35.290Z,72.87
2023-01-19T08:53:03.816Z,73.08
2023-01-19T08:55:30.586Z,73.73
2023-01-19T08:58:00.126Z,73.51
2023-01-19T09:00:27.424Z,73.99
2023-01-19T09:02:55.052Z,74.08
2023-01-19T09:05:21.733Z,74.37
2023-01-19T09:07:51.580Z,74.50
2023-01-19T09:10:18.844Z,75.22
2023-01-19T09:12:46.566Z,74.69
2023-01-19T09:15:16.665Z,74.40
2023-01-19T09:17:43.266Z,74.72
2023-01-19T09:20:11.648Z,75.74
2023-01-19T09:25:20.592Z,76.29
2023-01-19T09:27:47.620Z,76.88
2023-01-19T09:30:14.617Z,76.42
2023-01-19T09:32:41.227Z,76.14
2023-01-19T09:35:08.135Z,77.01
2023-01-19T09:37:47.537Z,77.50
2023-01-19T09:40:47.656Z,76.68
2023-01-19T09:43:47.860Z,77.84
2023-01-19T09:46:36.828Z,78.24
2023-01-19T09:49:11.539Z,78.67
2023-01-19T09:51:41.022Z,78.25
2023-01-19T09:54:19.811Z,78.13
2023-01-19T09:56:52.171Z,78.55
2023-01-19T09:59:33.561Z,78.58
2023-01-19T10:02:06.079Z,79.17
2023-01-19T10:04:40.319Z,78.29
2023-01-19T10:07:15.713Z,77.71
2023-01-19T10:10:02.602Z,78.57
2023-01-19T10:15:28.726Z,80.36
2023-01-19T10:18:01.696Z,79.09
2023-01-19T10:20:33.497Z,79.95
2023-01-19T10:23:02.172Z,80.33
2023-01-19T10:25:30.423Z,81.45
2023-01-19T10:31:48.744Z,79.07
2023-01-19T10:34:21.523Z,79.23
2023-01-19T10:36:54.853Z,79.11
2023-01-19T10:39:21.537Z,79.73
2023-01-19T10:41:53.312Z,79.73
2023-01-19T10:44:37.975Z,79.25
2023-01-19T10:47:06.883Z,78.66
2023-01-19T10:49:39.070Z,79.44
2023-01-19T10:52:08.282Z,78.95
2023-01-19T10:54:37.173Z,80.03
2023-01-19T10:57:07.510Z,79.36
2023-01-19T10:59:52.251Z,79.51
2023-01-19T11:02:30.701Z,81.29
2023-01-19T11:05:21.151Z,80.21
2023-01-19T11:07:47.762Z,79.15
2023-01-19T11:10:22.535Z,78.60
2023-01-19T11:13:12.566Z,78.87
2023-01-19T11:15:54.515Z,79.30
2023-01-19T11:18:39.024Z,78.69
2023-01-19T11:21:14.400Z,79.64
2023-01-19T11:23:51.182Z,79.31
2023-01-19T11:26:35.087Z,80.38
2023-01-19T11:29:04.019Z,80.11
2023-01-19T11:31:33.233Z,80.38
2023-01-19T11:34:05.756Z,80.77
2023-01-19T11:36:35.405Z,80.87
2023-01-19T11:39:20.435Z,81.00
2023-01-19T11:41:50.937Z,80.77
2023-01-19T11:44:29.560Z,81.06
2023-01-19T11:47:10.989Z,81.00
2023-01-19T11:50:01.454Z,81.36
2023-01-19T11:52:41.200Z,81.00
2023-01-19T11:55:37.147Z,81.98
2023-01-19T11:58:05.331Z,82.31
2023-01-19T12:00:53.022Z,82.82
2023-01-19T12:03:22.931Z,82.95
2023-01-19T12:05:53.364Z,82.26
2023-01-19T12:08:30.748Z,81.77
2023-01-19T12:10:59.908Z,81.46
2023-01-19T12:13:28.647Z,81.44
2023-01-19T12:16:01.212Z,81.46
2023-01-19T12:18:40.858Z,81.29
2023-01-19T12:21:07.544Z,82.43
2023-01-19T12:23:44.861Z,81.75
2023-01-19T12:26:17.743Z,82.05
2023-01-19T12:28:48.493Z,82.07
2023-01-19T12:31:21.602Z,82.89
2023-01-19T12:33:48.943Z,83.12
2023-01-19T12:36:32.221Z,84.85
2023-01-19T12:39:04.940Z,83.94
2023-01-19T12:41:40.209Z,83.66
2023-01-19T12:44:13.969Z,83.29
2023-01-19T12:46:43.631Z,83.52
2023-01-19T12:49:10.095Z,83.68
2023-01-19T12:51:36.799Z,83.78
2023-01-19T12:54:07.586Z,83.82
2023-01-19T12:56:38.204Z,83.68
2023-01-19T12:59:06.503Z,83.45
2023-01-19T13:01:33.188Z,83.29
2023-01-19T13:04:01.978Z,83.00
2023-01-19T13:06:47.049Z,83.24
2023-01-19T13:09:37.607Z,82.32
2023-01-19T13:12:30.590Z,81.50
2023-01-19T13:15:34.933Z,81.18
2023-01-19T13:18:44.948Z,80.56
2023-01-19T13:21:54.187Z,80.45
2023-01-19T13:24:23.505Z,81.42
2023-01-19T13:48:27.936Z,81.84
2023-01-19T13:51:00.328Z,82.35
2023-01-19T13:53:27.484Z,82.72
2023-01-19T14:05:40.993Z,84.47
2023-01-19T14:08:13.996Z,83.86
2023-01-19T14:13:32.319Z,84.75
2023-01-19T14:16:07.975Z,84.45
2023-01-19T14:18:36.316Z,84.69
2023-01-19T15:00:58.033Z,83.68
2023-01-19T15:09:24.130Z,82.17
2023-01-19T15:38:00.123Z,79.62
2023-01-19T15:40:26.832Z,78.26
2023-01-19T15:42:53.463Z,77.65
2023-01-19T15:45:33.428Z,77.27
2023-01-19T15:48:06.114Z,78.29
2023-01-19T15:50:35.594Z,78.61
2023-01-19T15:53:04.199Z,79.00
2023-01-19T15:55:30.826Z,79.11
2023-01-19T16:10:54.158Z,77.08
2023-01-19T16:13:52.147Z,76.41
2023-01-19T16:16:41.397Z,76.50
2023-01-19T16:24:45.580Z,77.26
2023-01-19T16:27:12.179Z,76.47
2023-01-19T16:29:38.799Z,75.56
2023-01-19T16:32:05.666Z,75.44
2023-01-19T16:34:32.212Z,75.23
2023-01-19T16:36:59.114Z,75.84
2023-01-19T16:39:25.685Z,75.94
2023-01-19T16:41:52.248Z,75.32
2023-01-19T16:44:19.232Z,75.74
2023-01-19T16:46:47.178Z,75.51
2023-01-19T16:49:15.089Z,74.82
2023-01-19T16:51:42.222Z,74.28
2023-01-19T16:54:17.024Z,74.72
2023-01-19T16:56:44.056Z,74.39
2023-01-19T16:59:12.475Z,73.82
2023-01-19T17:01:39.483Z,74.91
2023-01-19T17:04:06.649Z,74.04
2023-01-19T17:06:33.550Z,74.53
2023-01-19T17:09:00.261Z,73.82
2023-01-19T17:11:30.040Z,74.47
2023-01-19T17:13:57.910Z,74.30
2023-01-19T17:16:25.020Z,74.59
2023-01-19T17:18:51.896Z,74.69
2023-01-19T17:21:19.493Z,74.18
2023-01-19T17:23:48.295Z,73.43
2023-01-19T17:26:16.206Z,73.65
2023-01-19T17:28:43.171Z,73.94
2023-01-19T17:31:21.279Z,73.50
2023-01-19T17:33:49.570Z,73.68
2023-01-19T17:36:22.493Z,72.96
2023-01-19T17:38:49.463Z,72.91
2023-01-19T17:41:27.660Z,73.52
2023-01-19T17:43:54.932Z,72.79
2023-01-19T17:46:24.749Z,73.39
2023-01-19T17:48:53.542Z,74.06
2023-01-19T17:51:22.677Z,73.77
2023-01-19T17:53:50.746Z,74.69
2023-01-19T17:56:23.221Z,74.63
2023-01-19T17:58:49.916Z,74.13
2023-01-19T18:01:19.513Z,73.99
2023-01-19T18:03:46.875Z,74.18
2023-01-19T18:06:13.906Z,74.33
2023-01-19T18:08:42.891Z,76.04
2023-01-19T18:11:11.589Z,76.02
2023-01-19T18:13:38.895Z,76.75
2023-01-19T18:16:14.339Z,76.05
2023-01-19T18:18:41.155Z,76.25
2023-01-19T18:21:11.064Z,75.60
2023-01-19T18:23:38.486Z,75.71
2023-01-19T18:26:10.145Z,76.38
2023-01-19T18:28:37.260Z,75.42
2023-01-19T18:31:10.537Z,74.31
2023-01-19T18:33:37.938Z,74.53
2023-01-19T18:36:05.544Z,74.68
2023-01-19T18:38:32.403Z,74.05
2023-01-19T18:41:06.220Z,73.86
2023-01-19T18:43:33.301Z,74.23
2023-01-19T18:45:59.962Z,75.07
2023-01-19T18:48:26.579Z,73.81
2023-01-19T18:50:53.635Z,74.33
2023-01-19T18:53:20.580Z,74.68
2023-01-19T18:55:55.183Z,74.85
2023-01-19T18:58:22.466Z,73.80
2023-01-19T19:00:52.382Z,73.90
2023-01-19T19:03:19.371Z,74.00
2023-01-19T19:05:46.025Z,75.27
2023-01-19T19:08:12.781Z,74.66
2023-01-19T19:10:44.321Z,74.74
2023-01-19T19:13:17.747Z,75.14
2023-01-19T19:15:44.556Z,74.36
2023-01-19T19:18:13.828Z,73.83
2023-01-19T19:20:42.091Z,74.76
2023-01-19T19:23:09.161Z,74.58
2023-01-19T19:25:35.720Z,74.13
2023-01-19T19:28:02.325Z,73.96
2023-01-19T19:30:28.995Z,75.56
2023-01-19T19:32:56.528Z,74.91
2023-01-19T19:35:24.472Z,74.90
2023-01-19T19:37:57.293Z,74.83
2023-01-19T19:40:27.925Z,74.00
2023-01-19T19:42:59.666Z,73.91
2023-01-19T19:45:26.866Z,73.43
2023-01-19T19:47:54.453Z,72.98
2023-01-19T19:50:21.360Z,71.96
2023-01-19T19:52:47.964Z,71.98
2023-01-19T19:55:15.222Z,72.44
2023-01-19T19:57:41.865Z,72.32
2023-01-19T20:00:13.144Z,71.82
2023-01-19T20:05:36.256Z,72.51
2023-01-19T20:08:32.225Z,73.68
2023-01-19T20:11:50.057Z,73.60
2023-01-19T20:14:40.881Z,72.40
2023-01-19T20:17:24.997Z,72.07
2023-01-19T20:19:52.095Z,75.03
2023-01-19T20:22:18.664Z,76.38
2023-01-19T20:24:45.204Z,75.45
2023-01-19T20:27:11.837Z,76.09
2023-01-19T20:29:38.486Z,76.70
2023-01-19T20:32:05.813Z,75.74
2023-01-19T20:34:33.665Z,75.26
2023-01-19T20:37:01.736Z,75.22
2023-01-19T20:39:30.153Z,75.12
2023-01-19T20:41:57.036Z,76.12
2023-01-19T20:44:25.576Z,76.15
2023-01-19T20:46:53.020Z,75.11
2023-01-19T20:49:19.960Z,74.79
2023-01-19T20:51:47.040Z,73.19
2023-01-19T20:54:16.637Z,73.23
2023-01-19T20:56:43.287Z,72.71
2023-01-19T20:59:11.708Z,73.38
2023-01-19T21:01:39.519Z,72.38
2023-01-19T21:04:06.872Z,71.35
2023-01-19T21:06:33.897Z,71.08
2023-01-19T21:09:00.671Z,70.51
2023-01-19T21:11:30.565Z,70.45
2023-01-19T21:13:57.268Z,70.76
2023-01-19T21:19:06.643Z,71.36
2023-01-19T21:21:33.314Z,70.33
2023-01-19T21:24:01.700Z,70.53
2023-01-19T21:30:08.500Z,70.68
2023-01-19T21:32:36.833Z,70.21
2023-01-19T21:35:03.657Z,69.92
2023-01-19T21:37:31.176Z,69.71
2023-01-19T21:39:57.823Z,71.02
2023-01-19T21:42:24.513Z,70.31
2023-01-19T21:44:51.149Z,69.74
2023-01-19T21:47:17.742Z,69.83
2023-01-19T21:49:44.323Z,70.27
2023-01-19T21:52:10.954Z,71.39
2023-01-19T21:54:38.035Z,71.40
2023-01-19T21:57:04.912Z,72.05
2023-01-19T21:59:31.528Z,71.84
2023-01-19T22:01:58.206Z,70.83
2023-01-19T22:04:24.876Z,71.00
2023-01-19T22:06:51.437Z,71.36
2023-01-19T22:09:18.038Z,71.90
2023-01-19T22:11:44.576Z,71.27
2023-01-19T22:14:11.471Z,70.88
2023-01-19T22:16:38.141Z,70.04
2023-01-19T22:19:07.470Z,70.10
2023-01-19T22:21:37.789Z,70.09
2023-01-19T22:24:05.241Z,70.33
2023-01-19T22:26:34.056Z,70.23
2023-01-19T22:29:01.858Z,69.92
2023-01-19T22:31:40.663Z,69.79
2023-01-19T22:34:10.253Z,69.13
2023-01-19T22:36:37.935Z,68.90
2023-01-19T22:39:12.533Z,68.95
2023-01-19T22:41:44.899Z,69.14
2023-01-19T22:44:14.207Z,69.14
2023-01-19T22:46:40.845Z,69.00
2023-01-19T22:49:08.836Z,68.93
2023-01-19T22:51:35.583Z,69.55
2023-01-19T22:54:02.570Z,69.27
2023-01-19T22:56:31.255Z,69.15
2023-01-19T22:59:01.565Z,69.46
2023-01-19T23:02:13.143Z,69.90
2023-01-19T23:05:12.351Z,69.19
2023-01-19T23:07:39.729Z,69.19
2023-01-19T23:10:09.320Z,69.32
2023-01-19T23:12:35.946Z,69.35
2023-01-19T23:15:02.494Z,69.65
2023-01-19T23:17:29.343Z,69.39
2023-01-19T23:19:55.883Z,69.00
2023-01-19T23:24:57.661Z,69.38
2023-01-19T23:27:24.231Z,69.44
2023-01-19T23:30:09.886Z,69.95
2023-01-19T23:32:36.490Z,70.24
2023-01-19T23:35:03.145Z,70.26
2023-01-19T23:37:29.697Z,69.80
2023-01-19T23:39:56.240Z,69.05
2023-01-19T23:42:22.771Z,68.74
2023-01-19T23:44:49.311Z,68.58
2023-01-19T23:47:16.013Z,68.38
2023-01-19T23:49:42.562Z,68.40
2023-01-19T23:52:09.133Z,68.50
2023-01-19T23:54:35.785Z,68.22
2023-01-19T23:57:02.659Z,68.08
2023-01-19T23:59:29.226Z,68.75
